sensor_id;sensor_type;location;lat;lon;timestamp;P1;durP1;ratioP1;P2;durP2;ratioP2
27979;SDS011;15315;50.836;4.430;2022-12-16T00:01:56;61.08;;;25.45;;
27979;SDS011;15315;50.836;4.430;2022-12-16T00:11:57;54.63;;;24.92;;
27979;SDS011;15315;50.836;4.430;2022-12-16T00:21:57;50.35;;;25.00;;
27979;SDS011;15315;50.836;4.430;2022-12-16T00:31:58;63.72;;;27.25;;
27979;SDS011;15315;50.836;4.430;2022-12-16T00:41:58;55.67;;;25.05;;
27979;SDS011;15315;50.836;4.430;2022-12-16T00:51:58;49.67;;;24.27;;
27979;SDS011;15315;50.836;4.430;2022-12-16T01:01:59;54.95;;;23.17;;
27979;SDS011;15315;50.836;4.430;2022-12-16T01:11:59;48.72;;;23.55;;
27979;SDS011;15315;50.836;4.430;2022-12-16T01:21:59;51.22;;;23.48;;
27979;SDS011;15315;50.836;4.430;2022-12-16T01:32:00;49.88;;;22.45;;
27979;SDS011;15315;50.836;4.430;2022-12-16T01:42:00;48.80;;;23.20;;
27979;SDS011;15315;50.836;4.430;2022-12-16T01:52:01;48.20;;;24.33;;
27979;SDS011;15315;50.836;4.430;2022-12-16T02:02:04;41.70;;;22.33;;
27979;SDS011;15315;50.836;4.430;2022-12-16T02:22:46;52.65;;;22.80;;
27979;SDS011;15315;50.836;4.430;2022-12-16T02:43:33;49.22;;;21.55;;
27979;SDS011;15315;50.836;4.430;2022-12-16T02:53:41;43.45;;;22.35;;
27979;SDS011;15315;50.836;4.430;2022-12-16T03:03:54;41.65;;;21.55;;
27979;SDS011;15315;50.836;4.430;2022-12-16T03:14:01;42.45;;;20.88;;
27979;SDS011;15315;50.836;4.430;2022-12-16T03:24:06;42.13;;;21.43;;
27979;SDS011;15315;50.836;4.430;2022-12-16T03:44:09;38.78;;;21.20;;
27979;SDS011;15315;50.836;4.430;2022-12-16T03:54:10;59.73;;;23.47;;
27979;SDS011;15315;50.836;4.430;2022-12-16T04:04:11;61.10;;;24.98;;
27979;SDS011;15315;50.836;4.430;2022-12-16T04:14:11;63.45;;;27.17;;
27979;SDS011;15315;50.836;4.430;2022-12-16T04:24:30;64.28;;;27.58;;
27979;SDS011;15315;50.836;4.430;2022-12-16T04:34:32;70.13;;;30.00;;
27979;SDS011;15315;50.836;4.430;2022-12-16T04:44:32;71.82;;;32.63;;
27979;SDS011;15315;50.836;4.430;2022-12-16T04:54:51;66.63;;;31.15;;
27979;SDS011;15315;50.836;4.430;2022-12-16T05:05:10;64.65;;;31.40;;
27979;SDS011;15315;50.836;4.430;2022-12-16T05:15:48;79.25;;;31.75;;
27979;SDS011;15315;50.836;4.430;2022-12-16T05:26:07;71.97;;;30.38;;
27979;SDS011;15315;50.836;4.430;2022-12-16T05:36:26;73.93;;;30.30;;
27979;SDS011;15315;50.836;4.430;2022-12-16T05:46:45;56.92;;;25.60;;
27979;SDS011;15315;50.836;4.430;2022-12-16T05:57:04;53.13;;;25.58;;
27979;SDS011;15315;50.836;4.430;2022-12-16T06:07:23;62.85;;;27.40;;
27979;SDS011;15315;50.836;4.430;2022-12-16T06:17:46;61.40;;;28.48;;
27979;SDS011;15315;50.836;4.430;2022-12-16T06:28:06;57.38;;;26.13;;
27979;SDS011;15315;50.836;4.430;2022-12-16T06:38:25;56.92;;;24.45;;
27979;SDS011;15315;50.836;4.430;2022-12-16T06:48:44;50.50;;;25.83;;
27979;SDS011;15315;50.836;4.430;2022-12-16T06:59:03;54.33;;;25.63;;
27979;SDS011;15315;50.836;4.430;2022-12-16T07:09:22;48.33;;;22.90;;
27979;SDS011;15315;50.836;4.430;2022-12-16T07:19:41;47.95;;;23.33;;
27979;SDS011;15315;50.836;4.430;2022-12-16T07:30:00;47.58;;;23.10;;
27979;SDS011;15315;50.836;4.430;2022-12-16T07:40:19;51.95;;;22.58;;
27979;SDS011;15315;50.836;4.430;2022-12-16T07:50:38;40.35;;;19.88;;
27979;SDS011;15315;50.836;4.430;2022-12-16T08:00:57;43.83;;;21.85;;
27979;SDS011;15315;50.836;4.430;2022-12-16T08:11:16;46.50;;;22.92;;
27979;SDS011;15315;50.836;4.430;2022-12-16T08:21:35;50.15;;;23.98;;
27979;SDS011;15315;50.836;4.430;2022-12-16T08:31:54;49.65;;;24.33;;
27979;SDS011;15315;50.836;4.430;2022-12-16T08:42:13;41.33;;;22.25;;
27979;SDS011;15315;50.836;4.430;2022-12-16T08:52:32;42.30;;;22.13;;
27979;SDS011;15315;50.836;4.430;2022-12-16T09:02:51;44.83;;;22.73;;
27979;SDS011;15315;50.836;4.430;2022-12-16T09:13:13;49.72;;;24.15;;
27979;SDS011;15315;50.836;4.430;2022-12-16T09:23:33;52.28;;;24.90;;
27979;SDS011;15315;50.836;4.430;2022-12-16T09:33:52;46.80;;;24.60;;
27979;SDS011;15315;50.836;4.430;2022-12-16T09:54:40;44.53;;;24.00;;
27979;SDS011;15315;50.836;4.430;2022-12-16T10:05:04;41.80;;;22.90;;
27979;SDS011;15315;50.836;4.430;2022-12-16T10:26:21;45.20;;;23.67;;
27979;SDS011;15315;50.836;4.430;2022-12-16T10:36:46;47.15;;;23.95;;
27979;SDS011;15315;50.836;4.430;2022-12-16T10:47:08;55.63;;;23.40;;
27979;SDS011;15315;50.836;4.430;2022-12-16T11:18:51;46.22;;;23.23;;
27979;SDS011;15315;50.836;4.430;2022-12-16T11:29:11;44.00;;;22.90;;
27979;SDS011;15315;50.836;4.430;2022-12-16T11:39:32;49.72;;;23.60;;
27979;SDS011;15315;50.836;4.430;2022-12-16T11:49:54;48.13;;;24.40;;
27979;SDS011;15315;50.836;4.430;2022-12-16T12:00:15;51.28;;;25.55;;
27979;SDS011;15315;50.836;4.430;2022-12-16T12:42:44;33.10;;;18.50;;
27979;SDS011;15315;50.836;4.430;2022-12-16T12:53:14;34.65;;;17.00;;
27979;SDS011;15315;50.836;4.430;2022-12-16T13:03:44;33.45;;;15.85;;
27979;SDS011;15315;50.836;4.430;2022-12-16T13:24:49;25.10;;;10.80;;
27979;SDS011;15315;50.836;4.430;2022-12-16T13:45:37;24.45;;;11.50;;
27979;SDS011;15315;50.836;4.430;2022-12-16T13:55:58;22.35;;;9.88;;
27979;SDS011;15315;50.836;4.430;2022-12-16T14:06:20;25.85;;;11.25;;
27979;SDS011;15315;50.836;4.430;2022-12-16T14:16:53;25.00;;;13.13;;
27979;SDS011;15315;50.836;4.430;2022-12-16T14:27:19;28.52;;;11.32;;
27979;SDS011;15315;50.836;4.430;2022-12-16T14:37:39;26.17;;;11.15;;
27979;SDS011;15315;50.836;4.430;2022-12-16T14:47:58;25.58;;;12.63;;
27979;SDS011;15315;50.836;4.430;2022-12-16T14:58:18;23.35;;;11.57;;
27979;SDS011;15315;50.836;4.430;2022-12-16T15:08:46;26.83;;;12.27;;
27979;SDS011;15315;50.836;4.430;2022-12-16T15:19:08;22.73;;;11.70;;
27979;SDS011;15315;50.836;4.430;2022-12-16T15:29:35;27.77;;;12.00;;
27979;SDS011;15315;50.836;4.430;2022-12-16T15:39:55;35.08;;;14.70;;
27979;SDS011;15315;50.836;4.430;2022-12-16T15:50:15;61.60;;;21.80;;
27979;SDS011;15315;50.836;4.430;2022-12-16T16:00:36;40.38;;;18.10;;
27979;SDS011;15315;50.836;4.430;2022-12-16T16:10:55;33.33;;;14.52;;
27979;SDS011;15315;50.836;4.430;2022-12-16T16:21:14;33.63;;;12.63;;
27979;SDS011;15315;50.836;4.430;2022-12-16T16:31:33;25.67;;;12.60;;
27979;SDS011;15315;50.836;4.430;2022-12-16T16:41:53;29.70;;;12.32;;
27979;SDS011;15315;50.836;4.430;2022-12-16T16:52:13;24.48;;;12.10;;
27979;SDS011;15315;50.836;4.430;2022-12-16T17:02:36;63.13;;;22.55;;
27979;SDS011;15315;50.836;4.430;2022-12-16T17:12:55;44.65;;;19.88;;
27979;SDS011;15315;50.836;4.430;2022-12-16T17:23:14;34.78;;;16.45;;
27979;SDS011;15315;50.836;4.430;2022-12-16T17:33:33;39.03;;;17.90;;
27979;SDS011;15315;50.836;4.430;2022-12-16T17:43:52;39.45;;;18.38;;
27979;SDS011;15315;50.836;4.430;2022-12-16T17:54:11;43.45;;;19.63;;
27979;SDS011;15315;50.836;4.430;2022-12-16T18:04:30;42.40;;;19.52;;
27979;SDS011;15315;50.836;4.430;2022-12-16T18:14:49;43.33;;;20.63;;
27979;SDS011;15315;50.836;4.430;2022-12-16T18:25:08;63.28;;;23.58;;
27979;SDS011;15315;50.836;4.430;2022-12-16T18:35:27;56.70;;;24.63;;
27979;SDS011;15315;50.836;4.430;2022-12-16T18:45:52;64.10;;;24.38;;
27979;SDS011;15315;50.836;4.430;2022-12-16T18:56:13;53.85;;;25.98;;
27979;SDS011;15315;50.836;4.430;2022-12-16T19:06:32;60.50;;;26.42;;
27979;SDS011;15315;50.836;4.430;2022-12-16T19:16:51;62.72;;;26.90;;
27979;SDS011;15315;50.836;4.430;2022-12-16T19:27:10;68.32;;;27.90;;
27979;SDS011;15315;50.836;4.430;2022-12-16T19:37:30;61.13;;;27.33;;
27979;SDS011;15315;50.836;4.430;2022-12-16T19:47:50;64.07;;;29.55;;
27979;SDS011;15315;50.836;4.430;2022-12-16T19:58:08;67.85;;;30.17;;
27979;SDS011;15315;50.836;4.430;2022-12-16T20:08:28;67.50;;;31.15;;
27979;SDS011;15315;50.836;4.430;2022-12-16T20:18:47;76.25;;;31.65;;
27979;SDS011;15315;50.836;4.430;2022-12-16T20:29:06;89.63;;;39.83;;
27979;SDS011;15315;50.836;4.430;2022-12-16T20:39:25;87.53;;;36.97;;
27979;SDS011;15315;50.836;4.430;2022-12-16T20:49:44;73.32;;;36.38;;
27979;SDS011;15315;50.836;4.430;2022-12-16T21:00:03;75.93;;;35.08;;
27979;SDS011;15315;50.836;4.430;2022-12-16T21:10:23;84.28;;;36.42;;
27979;SDS011;15315;50.836;4.430;2022-12-16T21:20:42;83.88;;;37.00;;
27979;SDS011;15315;50.836;4.430;2022-12-16T21:31:01;82.18;;;36.72;;
27979;SDS011;15315;50.836;4.430;2022-12-16T21:41:20;78.15;;;34.42;;
27979;SDS011;15315;50.836;4.430;2022-12-16T21:51:39;84.97;;;35.78;;
27979;SDS011;15315;50.836;4.430;2022-12-16T22:01:58;81.18;;;34.97;;
27979;SDS011;15315;50.836;4.430;2022-12-16T22:12:17;69.72;;;34.10;;
27979;SDS011;15315;50.836;4.430;2022-12-16T22:22:36;63.47;;;31.88;;
27979;SDS011;15315;50.836;4.430;2022-12-16T22:32:55;77.32;;;32.40;;
27979;SDS011;15315;50.836;4.430;2022-12-16T22:43:14;68.25;;;30.42;;
27979;SDS011;15315;50.836;4.430;2022-12-16T22:53:33;70.70;;;29.40;;
27979;SDS011;15315;50.836;4.430;2022-12-16T23:03:52;69.97;;;29.10;;
27979;SDS011;15315;50.836;4.430;2022-12-16T23:14:11;73.95;;;34.80;;
27979;SDS011;15315;50.836;4.430;2022-12-16T23:24:30;61.67;;;28.10;;
27979;SDS011;15315;50.836;4.430;2022-12-16T23:34:49;61.50;;;26.65;;
27979;SDS011;15315;50.836;4.430;2022-12-16T23:45:08;57.33;;;26.63;;
27979;SDS011;15315;50.836;4.430;2022-12-16T23:55:28;58.85;;;26.75;;
